Aeroporto :
LOGIN :

Iscrizione | Disclaimer

   EN    FR    IT 

 










Sommario :    VFR   VFR Marginale   IFR   IFR Intensivo   IFR Molto Intensivo
Visibilità : 
Base nubi : 
>= 8 km
>= 3000ft
5 / 8 km
1000 / 3000 ft
1500m / 5 km
500 / 1000 ft
800 / 1500m
200 / 500 ft
< 800m
< 200 ft
Simboli :   Temporali  Nebbia  Neve Forte  Precipitazioni Forti  Vento > 20 kt
SIGMETs :   Varie  Temporali  Ghiacco  Turbolenza  Onda orograficha  Ceneri Vulcaniche






- Altitudine del aeroporto : 782 ft
- Codice IATA : BGY


LIME - Orio al Serio International - Bergamo

ULTIMO METAR :
  • 200650Z VRB02KT CAVOK 01/M07 Q1039 NOSIG

METARs OBSOLETI :
  • 200620Z VRB02KT CAVOK 02/M07 Q1038 NOSIG
  • 200550Z 36004KT CAVOK 02/M07 Q1038 NOSIG
  • 200520Z 04003KT 9999 FEW090 01/M05 Q1038 NOSIG
  • 200450Z 36005KT 9999 SCT090 02/M06 Q1037 NOSIG
  • 200420Z 01005KT 9999 SCT090 02/M06 Q1037 NOSIG

TAF TAF LIME
Valido dal 20 a 06 ore il 21 a 06 ore UTC


200500Z 2006/2106 VRB05KT 9999 SCT090



MetMap, La meteo Aeronautica in un colpo d'occhio ! - Copyright ORBIFLY Dicembre 2007 - Disclaimer

ORBIFLY MET'MAP TEAM :

Programmazione e sviluppo : Alexandra Zaïnal
Concezione : Baudouin d'Aumeries
Aiuto per la programmazione : Marc-Olivier Méhu
Supporto tecnico e logistico : Manuel Goepfert
Aiuto per la traduzione : Arnaldo La Scala

Contatto : metmap@orbifly.com




FONTI E CREDITI :

   NOAA